sensor_id;sensor_type;location;lat;lon;timestamp;P1;durP1;ratioP1;P2;durP2;ratioP2
2039;SDS011;1025;42.686;23.350;2023-02-12T00:01:32;6.13;;;4.17;;
2039;SDS011;1025;42.686;23.350;2023-02-12T00:03:59;5.80;;;5.40;;
2039;SDS011;1025;42.686;23.350;2023-02-12T00:06:26;4.90;;;4.50;;
2039;SDS011;1025;42.686;23.350;2023-02-12T00:08:53;3.90;;;3.60;;
2039;SDS011;1025;42.686;23.350;2023-02-12T00:11:21;4.97;;;4.67;;
2039;SDS011;1025;42.686;23.350;2023-02-12T00:13:49;5.23;;;5.00;;
2039;SDS011;1025;42.686;23.350;2023-02-12T00:16:17;6.17;;;5.73;;
2039;SDS011;1025;42.686;23.350;2023-02-12T00:18:44;5.60;;;5.20;;
2039;SDS011;1025;42.686;23.350;2023-02-12T00:21:11;5.73;;;5.33;;
2039;SDS011;1025;42.686;23.350;2023-02-12T00:23:38;5.30;;;4.87;;
2039;SDS011;1025;42.686;23.350;2023-02-12T00:26:05;7.93;;;5.90;;
2039;SDS011;1025;42.686;23.350;2023-02-12T00:28:32;6.17;;;5.67;;
2039;SDS011;1025;42.686;23.350;2023-02-12T00:31:04;5.23;;;3.93;;
2039;SDS011;1025;42.686;23.350;2023-02-12T00:33:31;4.80;;;4.60;;
2039;SDS011;1025;42.686;23.350;2023-02-12T00:35:57;5.47;;;5.07;;
2039;SDS011;1025;42.686;23.350;2023-02-12T00:38:24;9.30;;;6.07;;
2039;SDS011;1025;42.686;23.350;2023-02-12T00:40:50;4.40;;;4.10;;
2039;SDS011;1025;42.686;23.350;2023-02-12T00:43:17;6.40;;;5.40;;
2039;SDS011;1025;42.686;23.350;2023-02-12T00:45:43;5.77;;;5.33;;
2039;SDS011;1025;42.686;23.350;2023-02-12T00:48:11;5.33;;;4.93;;
2039;SDS011;1025;42.686;23.350;2023-02-12T00:50:38;6.07;;;5.57;;
2039;SDS011;1025;42.686;23.350;2023-02-12T00:53:05;5.40;;;5.00;;
2039;SDS011;1025;42.686;23.350;2023-02-12T00:55:32;5.57;;;5.03;;
2039;SDS011;1025;42.686;23.350;2023-02-12T00:57:58;5.80;;;5.27;;
2039;SDS011;1025;42.686;23.350;2023-02-12T01:00:25;6.07;;;4.80;;
2039;SDS011;1025;42.686;23.350;2023-02-12T01:02:52;5.43;;;5.03;;
2039;SDS011;1025;42.686;23.350;2023-02-12T01:05:19;3.63;;;3.43;;
2039;SDS011;1025;42.686;23.350;2023-02-12T01:07:47;5.67;;;5.07;;
2039;SDS011;1025;42.686;23.350;2023-02-12T01:10:14;4.97;;;4.67;;
2039;SDS011;1025;42.686;23.350;2023-02-12T01:12:41;5.70;;;5.30;;
2039;SDS011;1025;42.686;23.350;2023-02-12T01:15:07;4.70;;;4.50;;
2039;SDS011;1025;42.686;23.350;2023-02-12T01:17:35;6.17;;;5.67;;
2039;SDS011;1025;42.686;23.350;2023-02-12T01:20:01;7.43;;;4.97;;
2039;SDS011;1025;42.686;23.350;2023-02-12T01:22:32;5.37;;;4.97;;
2039;SDS011;1025;42.686;23.350;2023-02-12T01:24:59;4.73;;;4.50;;
2039;SDS011;1025;42.686;23.350;2023-02-12T01:27:25;5.20;;;5.00;;
2039;SDS011;1025;42.686;23.350;2023-02-12T01:29:52;5.97;;;5.57;;
2039;SDS011;1025;42.686;23.350;2023-02-12T01:32:18;6.57;;;6.17;;
2039;SDS011;1025;42.686;23.350;2023-02-12T01:34:45;6.23;;;5.83;;
2039;SDS011;1025;42.686;23.350;2023-02-12T01:37:11;5.80;;;5.30;;
2039;SDS011;1025;42.686;23.350;2023-02-12T01:39:39;6.20;;;5.70;;
2039;SDS011;1025;42.686;23.350;2023-02-12T01:42:06;6.33;;;5.80;;
2039;SDS011;1025;42.686;23.350;2023-02-12T01:44:33;6.17;;;5.77;;
2039;SDS011;1025;42.686;23.350;2023-02-12T01:47:00;6.80;;;5.90;;
2039;SDS011;1025;42.686;23.350;2023-02-12T01:49:27;5.87;;;5.57;;
2039;SDS011;1025;42.686;23.350;2023-02-12T01:51:57;5.93;;;5.57;;
2039;SDS011;1025;42.686;23.350;2023-02-12T01:54:24;6.30;;;5.90;;
2039;SDS011;1025;42.686;23.350;2023-02-12T01:56:52;5.47;;;5.13;;
2039;SDS011;1025;42.686;23.350;2023-02-12T01:59:19;6.87;;;6.27;;
2039;SDS011;1025;42.686;23.350;2023-02-12T02:01:46;6.00;;;5.60;;
2039;SDS011;1025;42.686;23.350;2023-02-12T02:04:14;5.57;;;5.03;;
2039;SDS011;1025;42.686;23.350;2023-02-12T02:06:43;6.90;;;6.40;;
2039;SDS011;1025;42.686;23.350;2023-02-12T02:09:11;5.70;;;5.17;;
2039;SDS011;1025;42.686;23.350;2023-02-12T02:11:38;6.83;;;6.33;;
2039;SDS011;1025;42.686;23.350;2023-02-12T02:14:23;5.67;;;5.37;;
2039;SDS011;1025;42.686;23.350;2023-02-12T02:19:49;6.17;;;5.70;;
2039;SDS011;1025;42.686;23.350;2023-02-12T02:22:22;6.50;;;6.00;;
2039;SDS011;1025;42.686;23.350;2023-02-12T02:27:39;7.23;;;6.63;;
2039;SDS011;1025;42.686;23.350;2023-02-12T02:33:02;8.40;;;6.50;;
2039;SDS011;1025;42.686;23.350;2023-02-12T02:35:35;6.87;;;6.37;;
2039;SDS011;1025;42.686;23.350;2023-02-12T02:38:06;7.53;;;6.90;;
2039;SDS011;1025;42.686;23.350;2023-02-12T02:40:37;13.70;;;6.87;;
2039;SDS011;1025;42.686;23.350;2023-02-12T02:43:06;10.13;;;8.70;;
2039;SDS011;1025;42.686;23.350;2023-02-12T02:45:35;7.63;;;7.03;;
2039;SDS011;1025;42.686;23.350;2023-02-12T02:48:07;7.20;;;6.73;;
2039;SDS011;1025;42.686;23.350;2023-02-12T02:50:35;6.53;;;6.03;;
2039;SDS011;1025;42.686;23.350;2023-02-12T02:53:05;6.90;;;6.33;;
2039;SDS011;1025;42.686;23.350;2023-02-12T02:55:34;7.57;;;6.97;;
2039;SDS011;1025;42.686;23.350;2023-02-12T02:58:05;6.97;;;6.40;;
2039;SDS011;1025;42.686;23.350;2023-02-12T03:00:34;6.37;;;5.93;;
2039;SDS011;1025;42.686;23.350;2023-02-12T03:03:02;8.23;;;7.57;;
2039;SDS011;1025;42.686;23.350;2023-02-12T03:05:33;7.47;;;7.07;;
2039;SDS011;1025;42.686;23.350;2023-02-12T03:08:04;8.83;;;7.07;;
2039;SDS011;1025;42.686;23.350;2023-02-12T03:10:33;8.47;;;7.83;;
2039;SDS011;1025;42.686;23.350;2023-02-12T03:13:01;8.23;;;7.60;;
2039;SDS011;1025;42.686;23.350;2023-02-12T03:15:31;7.77;;;7.20;;
2039;SDS011;1025;42.686;23.350;2023-02-12T03:17:59;9.33;;;8.33;;
2039;SDS011;1025;42.686;23.350;2023-02-12T03:20:27;6.90;;;6.27;;
2039;SDS011;1025;42.686;23.350;2023-02-12T03:22:57;7.37;;;6.77;;
2039;SDS011;1025;42.686;23.350;2023-02-12T03:25:24;7.40;;;6.90;;
2039;SDS011;1025;42.686;23.350;2023-02-12T03:27:53;6.47;;;5.87;;
2039;SDS011;1025;42.686;23.350;2023-02-12T03:30:22;11.37;;;8.40;;
2039;SDS011;1025;42.686;23.350;2023-02-12T03:32:51;7.90;;;7.30;;
2039;SDS011;1025;42.686;23.350;2023-02-12T03:35:20;5.97;;;5.63;;
2039;SDS011;1025;42.686;23.350;2023-02-12T03:37:50;11.73;;;8.63;;
2039;SDS011;1025;42.686;23.350;2023-02-12T03:40:24;8.63;;;7.93;;
2039;SDS011;1025;42.686;23.350;2023-02-12T03:42:54;9.07;;;7.93;;
2039;SDS011;1025;42.686;23.350;2023-02-12T03:45:26;7.50;;;7.00;;
2039;SDS011;1025;42.686;23.350;2023-02-12T03:47:56;7.90;;;7.20;;
2039;SDS011;1025;42.686;23.350;2023-02-12T03:50:26;7.70;;;7.03;;
2039;SDS011;1025;42.686;23.350;2023-02-12T03:52:56;7.53;;;6.93;;
2039;SDS011;1025;42.686;23.350;2023-02-12T03:55:24;10.37;;;9.30;;
2039;SDS011;1025;42.686;23.350;2023-02-12T03:57:53;8.13;;;7.43;;
2039;SDS011;1025;42.686;23.350;2023-02-12T04:00:21;8.17;;;7.57;;
2039;SDS011;1025;42.686;23.350;2023-02-12T04:02:48;9.67;;;8.20;;
2039;SDS011;1025;42.686;23.350;2023-02-12T04:05:15;10.10;;;6.93;;
2039;SDS011;1025;42.686;23.350;2023-02-12T04:07:42;7.30;;;6.80;;
2039;SDS011;1025;42.686;23.350;2023-02-12T04:10:09;7.13;;;6.60;;
2039;SDS011;1025;42.686;23.350;2023-02-12T04:12:39;11.00;;;8.43;;
2039;SDS011;1025;42.686;23.350;2023-02-12T04:15:18;9.40;;;7.10;;
2039;SDS011;1025;42.686;23.350;2023-02-12T04:17:49;5.93;;;5.60;;
2039;SDS011;1025;42.686;23.350;2023-02-12T04:20:19;8.73;;;7.90;;
2039;SDS011;1025;42.686;23.350;2023-02-12T04:22:51;8.03;;;7.40;;
2039;SDS011;1025;42.686;23.350;2023-02-12T04:25:20;7.00;;;6.53;;
2039;SDS011;1025;42.686;23.350;2023-02-12T04:27:50;8.23;;;7.53;;
2039;SDS011;1025;42.686;23.350;2023-02-12T04:30:22;8.30;;;7.70;;
2039;SDS011;1025;42.686;23.350;2023-02-12T04:32:51;7.20;;;6.70;;
2039;SDS011;1025;42.686;23.350;2023-02-12T04:35:19;7.47;;;6.97;;
2039;SDS011;1025;42.686;23.350;2023-02-12T04:37:47;14.53;;;7.73;;
2039;SDS011;1025;42.686;23.350;2023-02-12T04:40:16;8.87;;;8.00;;
2039;SDS011;1025;42.686;23.350;2023-02-12T04:42:44;9.13;;;8.33;;
2039;SDS011;1025;42.686;23.350;2023-02-12T04:45:13;7.30;;;6.87;;
2039;SDS011;1025;42.686;23.350;2023-02-12T04:47:40;7.77;;;7.20;;
2039;SDS011;1025;42.686;23.350;2023-02-12T04:50:07;8.20;;;7.20;;
2039;SDS011;1025;42.686;23.350;2023-02-12T04:52:34;9.27;;;8.47;;
2039;SDS011;1025;42.686;23.350;2023-02-12T04:55:00;8.87;;;8.20;;
2039;SDS011;1025;42.686;23.350;2023-02-12T04:57:27;6.53;;;6.13;;
2039;SDS011;1025;42.686;23.350;2023-02-12T04:59:53;10.10;;;7.57;;
2039;SDS011;1025;42.686;23.350;2023-02-12T05:02:21;9.23;;;7.87;;
2039;SDS011;1025;42.686;23.350;2023-02-12T05:04:48;7.33;;;6.73;;
2039;SDS011;1025;42.686;23.350;2023-02-12T05:07:15;6.70;;;6.10;;
2039;SDS011;1025;42.686;23.350;2023-02-12T05:09:41;9.97;;;8.40;;
2039;SDS011;1025;42.686;23.350;2023-02-12T05:12:08;7.87;;;7.17;;
2039;SDS011;1025;42.686;23.350;2023-02-12T05:14:34;7.07;;;6.47;;
2039;SDS011;1025;42.686;23.350;2023-02-12T05:17:01;15.43;;;8.80;;
2039;SDS011;1025;42.686;23.350;2023-02-12T05:19:29;5.17;;;4.77;;
2039;SDS011;1025;42.686;23.350;2023-02-12T05:21:55;8.00;;;7.23;;
2039;SDS011;1025;42.686;23.350;2023-02-12T05:24:22;6.77;;;6.20;;
2039;SDS011;1025;42.686;23.350;2023-02-12T05:26:48;7.00;;;6.50;;
2039;SDS011;1025;42.686;23.350;2023-02-12T05:29:15;5.70;;;5.40;;
2039;SDS011;1025;42.686;23.350;2023-02-12T05:31:41;6.87;;;6.20;;
2039;SDS011;1025;42.686;23.350;2023-02-12T05:34:08;8.73;;;6.80;;
2039;SDS011;1025;42.686;23.350;2023-02-12T05:36:36;9.10;;;8.27;;
2039;SDS011;1025;42.686;23.350;2023-02-12T05:39:03;7.13;;;6.43;;
2039;SDS011;1025;42.686;23.350;2023-02-12T05:41:31;9.80;;;7.53;;
2039;SDS011;1025;42.686;23.350;2023-02-12T05:43:59;11.87;;;5.60;;
2039;SDS011;1025;42.686;23.350;2023-02-12T05:46:26;10.10;;;7.03;;
2039;SDS011;1025;42.686;23.350;2023-02-12T05:48:52;7.00;;;6.37;;
2039;SDS011;1025;42.686;23.350;2023-02-12T05:51:20;5.07;;;4.60;;
2039;SDS011;1025;42.686;23.350;2023-02-12T05:53:48;7.97;;;7.20;;
2039;SDS011;1025;42.686;23.350;2023-02-12T05:56:16;7.00;;;6.30;;
2039;SDS011;1025;42.686;23.350;2023-02-12T05:58:44;6.23;;;5.73;;
2039;SDS011;1025;42.686;23.350;2023-02-12T06:01:11;5.67;;;5.27;;
2039;SDS011;1025;42.686;23.350;2023-02-12T06:03:38;12.30;;;8.00;;
2039;SDS011;1025;42.686;23.350;2023-02-12T06:06:04;8.20;;;7.50;;
2039;SDS011;1025;42.686;23.350;2023-02-12T06:08:31;8.67;;;7.87;;
2039;SDS011;1025;42.686;23.350;2023-02-12T06:11:00;8.90;;;8.20;;
2039;SDS011;1025;42.686;23.350;2023-02-12T06:13:27;11.53;;;6.80;;
2039;SDS011;1025;42.686;23.350;2023-02-12T06:15:54;7.20;;;6.70;;
2039;SDS011;1025;42.686;23.350;2023-02-12T06:18:23;9.67;;;7.73;;
2039;SDS011;1025;42.686;23.350;2023-02-12T06:20:49;7.33;;;6.63;;
2039;SDS011;1025;42.686;23.350;2023-02-12T06:23:18;8.40;;;7.70;;
2039;SDS011;1025;42.686;23.350;2023-02-12T06:25:45;9.10;;;7.33;;
2039;SDS011;1025;42.686;23.350;2023-02-12T06:28:13;6.73;;;6.33;;
2039;SDS011;1025;42.686;23.350;2023-02-12T06:30:39;6.90;;;6.40;;
2039;SDS011;1025;42.686;23.350;2023-02-12T06:33:06;7.43;;;6.83;;
2039;SDS011;1025;42.686;23.350;2023-02-12T06:35:33;6.73;;;6.23;;
2039;SDS011;1025;42.686;23.350;2023-02-12T06:38:00;6.50;;;6.07;;
2039;SDS011;1025;42.686;23.350;2023-02-12T06:40:26;15.57;;;6.10;;
2039;SDS011;1025;42.686;23.350;2023-02-12T06:42:53;8.10;;;7.40;;
2039;SDS011;1025;42.686;23.350;2023-02-12T06:45:21;6.90;;;6.30;;
2039;SDS011;1025;42.686;23.350;2023-02-12T06:47:48;8.67;;;8.10;;
2039;SDS011;1025;42.686;23.350;2023-02-12T06:50:15;6.67;;;6.27;;
2039;SDS011;1025;42.686;23.350;2023-02-12T06:52:41;8.57;;;7.87;;
2039;SDS011;1025;42.686;23.350;2023-02-12T06:55:08;5.90;;;5.60;;
2039;SDS011;1025;42.686;23.350;2023-02-12T06:57:34;6.53;;;6.03;;
2039;SDS011;1025;42.686;23.350;2023-02-12T07:00:01;7.53;;;5.53;;
2039;SDS011;1025;42.686;23.350;2023-02-12T07:02:29;7.63;;;6.83;;
2039;SDS011;1025;42.686;23.350;2023-02-12T07:04:55;6.03;;;5.63;;
2039;SDS011;1025;42.686;23.350;2023-02-12T07:07:22;6.93;;;6.33;;
2039;SDS011;1025;42.686;23.350;2023-02-12T07:09:48;6.83;;;6.23;;
2039;SDS011;1025;42.686;23.350;2023-02-12T07:12:15;6.63;;;6.13;;
2039;SDS011;1025;42.686;23.350;2023-02-12T07:14:42;6.50;;;6.10;;
2039;SDS011;1025;42.686;23.350;2023-02-12T07:17:08;7.97;;;7.20;;
2039;SDS011;1025;42.686;23.350;2023-02-12T07:19:36;7.50;;;6.80;;
2039;SDS011;1025;42.686;23.350;2023-02-12T07:22:03;6.73;;;6.07;;
2039;SDS011;1025;42.686;23.350;2023-02-12T07:24:29;6.97;;;6.43;;
2039;SDS011;1025;42.686;23.350;2023-02-12T07:26:56;7.03;;;6.37;;
2039;SDS011;1025;42.686;23.350;2023-02-12T07:29:22;6.87;;;6.37;;
2039;SDS011;1025;42.686;23.350;2023-02-12T07:31:49;8.13;;;7.33;;
2039;SDS011;1025;42.686;23.350;2023-02-12T07:34:15;7.70;;;7.23;;
2039;SDS011;1025;42.686;23.350;2023-02-12T07:36:43;6.83;;;6.43;;
2039;SDS011;1025;42.686;23.350;2023-02-12T07:39:10;8.57;;;7.90;;
2039;SDS011;1025;42.686;23.350;2023-02-12T07:41:36;7.63;;;6.93;;
2039;SDS011;1025;42.686;23.350;2023-02-12T07:44:03;9.13;;;8.30;;
2039;SDS011;1025;42.686;23.350;2023-02-12T07:46:33;7.53;;;6.87;;
2039;SDS011;1025;42.686;23.350;2023-02-12T07:49:00;6.63;;;6.13;;
2039;SDS011;1025;42.686;23.350;2023-02-12T07:51:28;8.47;;;7.77;;
2039;SDS011;1025;42.686;23.350;2023-02-12T07:53:58;7.80;;;7.17;;
2039;SDS011;1025;42.686;23.350;2023-02-12T07:56:26;7.73;;;7.07;;
2039;SDS011;1025;42.686;23.350;2023-02-12T07:58:55;7.77;;;7.07;;
2039;SDS011;1025;42.686;23.350;2023-02-12T08:01:22;7.67;;;7.13;;
2039;SDS011;1025;42.686;23.350;2023-02-12T08:03:50;8.00;;;7.40;;
2039;SDS011;1025;42.686;23.350;2023-02-12T08:06:17;9.10;;;8.23;;
2039;SDS011;1025;42.686;23.350;2023-02-12T08:08:44;7.97;;;7.17;;
2039;SDS011;1025;42.686;23.350;2023-02-12T08:11:13;8.63;;;7.97;;
2039;SDS011;1025;42.686;23.350;2023-02-12T08:13:40;9.40;;;8.50;;
2039;SDS011;1025;42.686;23.350;2023-02-12T08:16:08;7.27;;;6.57;;
2039;SDS011;1025;42.686;23.350;2023-02-12T08:18:34;9.33;;;8.53;;
2039;SDS011;1025;42.686;23.350;2023-02-12T08:21:01;7.90;;;7.30;;
2039;SDS011;1025;42.686;23.350;2023-02-12T08:23:29;6.90;;;6.50;;
2039;SDS011;1025;42.686;23.350;2023-02-12T08:26:03;8.20;;;7.40;;
2039;SDS011;1025;42.686;23.350;2023-02-12T08:28:31;7.10;;;6.70;;
2039;SDS011;1025;42.686;23.350;2023-02-12T08:30:58;9.20;;;8.40;;
2039;SDS011;1025;42.686;23.350;2023-02-12T08:33:25;8.90;;;8.10;;
2039;SDS011;1025;42.686;23.350;2023-02-12T08:35:58;8.63;;;7.70;;
2039;SDS011;1025;42.686;23.350;2023-02-12T08:38:25;14.57;;;8.97;;
2039;SDS011;1025;42.686;23.350;2023-02-12T08:40:52;10.37;;;9.40;;
2039;SDS011;1025;42.686;23.350;2023-02-12T08:43:18;8.50;;;7.47;;
2039;SDS011;1025;42.686;23.350;2023-02-12T08:45:46;9.23;;;8.63;;
2039;SDS011;1025;42.686;23.350;2023-02-12T08:48:12;9.93;;;9.23;;
2039;SDS011;1025;42.686;23.350;2023-02-12T08:50:39;9.43;;;8.53;;
2039;SDS011;1025;42.686;23.350;2023-02-12T08:53:06;10.50;;;9.47;;
2039;SDS011;1025;42.686;23.350;2023-02-12T08:55:32;10.63;;;9.60;;
2039;SDS011;1025;42.686;23.350;2023-02-12T08:57:59;8.60;;;8.00;;
2039;SDS011;1025;42.686;23.350;2023-02-12T09:00:26;9.83;;;9.13;;
2039;SDS011;1025;42.686;23.350;2023-02-12T09:02:54;14.40;;;13.10;;
2039;SDS011;1025;42.686;23.350;2023-02-12T09:05:21;8.87;;;8.33;;
2039;SDS011;1025;42.686;23.350;2023-02-12T09:07:47;10.50;;;9.27;;
2039;SDS011;1025;42.686;23.350;2023-02-12T09:10:14;10.13;;;9.40;;
2039;SDS011;1025;42.686;23.350;2023-02-12T09:12:41;11.43;;;9.60;;
2039;SDS011;1025;42.686;23.350;2023-02-12T09:15:07;11.50;;;10.50;;
2039;SDS011;1025;42.686;23.350;2023-02-12T09:17:34;10.60;;;9.80;;
2039;SDS011;1025;42.686;23.350;2023-02-12T09:20:02;11.63;;;10.37;;
2039;SDS011;1025;42.686;23.350;2023-02-12T09:22:28;10.13;;;9.33;;
2039;SDS011;1025;42.686;23.350;2023-02-12T09:24:55;12.37;;;9.40;;
2039;SDS011;1025;42.686;23.350;2023-02-12T09:27:21;10.93;;;9.80;;
2039;SDS011;1025;42.686;23.350;2023-02-12T09:29:48;11.63;;;9.93;;
2039;SDS011;1025;42.686;23.350;2023-02-12T09:32:14;10.90;;;10.00;;
2039;SDS011;1025;42.686;23.350;2023-02-12T09:34:41;11.20;;;10.17;;
2039;SDS011;1025;42.686;23.350;2023-02-12T09:37:09;11.83;;;10.73;;
2039;SDS011;1025;42.686;23.350;2023-02-12T09:39:36;11.53;;;10.33;;
2039;SDS011;1025;42.686;23.350;2023-02-12T09:44:49;13.70;;;10.87;;
2039;SDS011;1025;42.686;23.350;2023-02-12T09:47:20;11.43;;;10.43;;
2039;SDS011;1025;42.686;23.350;2023-02-12T09:49:54;10.27;;;9.47;;
2039;SDS011;1025;42.686;23.350;2023-02-12T09:52:25;10.63;;;9.73;;
2039;SDS011;1025;42.686;23.350;2023-02-12T09:54:52;11.93;;;11.10;;
2039;SDS011;1025;42.686;23.350;2023-02-12T09:57:20;12.07;;;10.23;;
2039;SDS011;1025;42.686;23.350;2023-02-12T09:59:50;11.23;;;10.33;;
2039;SDS011;1025;42.686;23.350;2023-02-12T10:02:19;10.10;;;9.10;;
2039;SDS011;1025;42.686;23.350;2023-02-12T10:04:47;12.87;;;11.63;;
2039;SDS011;1025;42.686;23.350;2023-02-12T10:07:17;13.13;;;11.83;;
2039;SDS011;1025;42.686;23.350;2023-02-12T10:12:33;12.43;;;9.90;;
2039;SDS011;1025;42.686;23.350;2023-02-12T10:15:06;12.20;;;11.10;;
2039;SDS011;1025;42.686;23.350;2023-02-12T10:17:39;11.53;;;10.33;;
2039;SDS011;1025;42.686;23.350;2023-02-12T10:22:49;14.07;;;12.80;;
2039;SDS011;1025;42.686;23.350;2023-02-12T10:25:21;14.40;;;12.07;;
2039;SDS011;1025;42.686;23.350;2023-02-12T10:27:51;17.50;;;12.83;;
2039;SDS011;1025;42.686;23.350;2023-02-12T10:30:19;11.17;;;10.03;;
2039;SDS011;1025;42.686;23.350;2023-02-12T10:32:47;12.50;;;11.50;;
2039;SDS011;1025;42.686;23.350;2023-02-12T10:35:17;13.37;;;10.53;;
2039;SDS011;1025;42.686;23.350;2023-02-12T10:37:44;13.77;;;11.90;;
2039;SDS011;1025;42.686;23.350;2023-02-12T10:40:16;14.50;;;13.30;;
2039;SDS011;1025;42.686;23.350;2023-02-12T10:42:44;11.80;;;10.60;;
2039;SDS011;1025;42.686;23.350;2023-02-12T10:45:13;13.10;;;11.77;;
2039;SDS011;1025;42.686;23.350;2023-02-12T10:47:40;15.43;;;12.80;;
2039;SDS011;1025;42.686;23.350;2023-02-12T10:50:13;11.47;;;10.27;;
2039;SDS011;1025;42.686;23.350;2023-02-12T10:52:43;24.93;;;12.90;;
2039;SDS011;1025;42.686;23.350;2023-02-12T10:55:23;13.13;;;11.93;;
2039;SDS011;1025;42.686;23.350;2023-02-12T10:57:50;13.00;;;11.00;;
2039;SDS011;1025;42.686;23.350;2023-02-12T11:00:22;14.10;;;12.90;;
2039;SDS011;1025;42.686;23.350;2023-02-12T11:02:58;12.47;;;11.43;;
2039;SDS011;1025;42.686;23.350;2023-02-12T11:05:25;11.23;;;10.17;;
2039;SDS011;1025;42.686;23.350;2023-02-12T11:07:54;15.97;;;12.07;;
2039;SDS011;1025;42.686;23.350;2023-02-12T11:10:24;16.80;;;13.23;;
2039;SDS011;1025;42.686;23.350;2023-02-12T11:12:52;12.07;;;11.07;;
2039;SDS011;1025;42.686;23.350;2023-02-12T11:15:19;20.77;;;13.80;;
2039;SDS011;1025;42.686;23.350;2023-02-12T11:17:55;24.77;;;13.17;;
2039;SDS011;1025;42.686;23.350;2023-02-12T11:20:23;13.00;;;11.87;;
2039;SDS011;1025;42.686;23.350;2023-02-12T11:22:54;16.33;;;12.40;;
2039;SDS011;1025;42.686;23.350;2023-02-12T11:25:22;14.10;;;12.87;;
2039;SDS011;1025;42.686;23.350;2023-02-12T11:27:57;18.47;;;11.67;;
2039;SDS011;1025;42.686;23.350;2023-02-12T11:30:24;12.80;;;11.50;;
2039;SDS011;1025;42.686;23.350;2023-02-12T11:32:51;18.07;;;11.00;;
2039;SDS011;1025;42.686;23.350;2023-02-12T11:35:20;14.80;;;12.10;;
2039;SDS011;1025;42.686;23.350;2023-02-12T11:37:49;11.23;;;10.33;;
2039;SDS011;1025;42.686;23.350;2023-02-12T11:40:20;12.87;;;11.57;;
2039;SDS011;1025;42.686;23.350;2023-02-12T11:42:48;13.30;;;10.47;;
2039;SDS011;1025;42.686;23.350;2023-02-12T11:45:15;13.23;;;10.63;;
2039;SDS011;1025;42.686;23.350;2023-02-12T11:47:42;13.67;;;11.60;;
2039;SDS011;1025;42.686;23.350;2023-02-12T11:50:15;12.50;;;11.30;;
2039;SDS011;1025;42.686;23.350;2023-02-12T11:52:46;13.07;;;11.77;;
2039;SDS011;1025;42.686;23.350;2023-02-12T11:55:17;11.07;;;10.07;;
2039;SDS011;1025;42.686;23.350;2023-02-12T11:57:45;16.57;;;11.27;;
2039;SDS011;1025;42.686;23.350;2023-02-12T12:00:14;11.20;;;10.10;;
2039;SDS011;1025;42.686;23.350;2023-02-12T12:02:41;11.40;;;10.50;;
2039;SDS011;1025;42.686;23.350;2023-02-12T12:05:12;13.87;;;12.43;;
2039;SDS011;1025;42.686;23.350;2023-02-12T12:07:41;14.03;;;12.77;;
2039;SDS011;1025;42.686;23.350;2023-02-12T12:10:14;12.23;;;11.30;;
2039;SDS011;1025;42.686;23.350;2023-02-12T12:12:44;12.53;;;11.50;;
2039;SDS011;1025;42.686;23.350;2023-02-12T12:15:14;17.37;;;12.50;;
2039;SDS011;1025;42.686;23.350;2023-02-12T12:18:00;12.00;;;10.90;;
2039;SDS011;1025;42.686;23.350;2023-02-12T12:20:47;13.47;;;12.27;;
2039;SDS011;1025;42.686;23.350;2023-02-12T12:23:17;12.13;;;11.20;;
2039;SDS011;1025;42.686;23.350;2023-02-12T12:25:46;15.50;;;11.97;;
2039;SDS011;1025;42.686;23.350;2023-02-12T12:28:18;20.00;;;11.37;;
2039;SDS011;1025;42.686;23.350;2023-02-12T12:30:52;12.17;;;11.20;;
2039;SDS011;1025;42.686;23.350;2023-02-12T12:33:25;12.23;;;11.10;;
2039;SDS011;1025;42.686;23.350;2023-02-12T12:36:01;12.87;;;11.47;;
2039;SDS011;1025;42.686;23.350;2023-02-12T12:38:32;11.93;;;11.03;;
2039;SDS011;1025;42.686;23.350;2023-02-12T12:41:06;11.33;;;10.47;;
2039;SDS011;1025;42.686;23.350;2023-02-12T12:43:37;22.03;;;11.50;;
2039;SDS011;1025;42.686;23.350;2023-02-12T12:49:03;21.17;;;12.13;;
2039;SDS011;1025;42.686;23.350;2023-02-12T12:51:40;14.20;;;12.67;;
2039;SDS011;1025;42.686;23.350;2023-02-12T12:54:11;11.43;;;10.43;;
2039;SDS011;1025;42.686;23.350;2023-02-12T12:59:39;14.07;;;9.83;;
2039;SDS011;1025;42.686;23.350;2023-02-12T13:02:23;11.70;;;10.70;;
2039;SDS011;1025;42.686;23.350;2023-02-12T13:05:02;14.93;;;11.50;;
2039;SDS011;1025;42.686;23.350;2023-02-12T13:07:38;12.40;;;11.40;;
2039;SDS011;1025;42.686;23.350;2023-02-12T13:10:09;16.20;;;14.80;;
2039;SDS011;1025;42.686;23.350;2023-02-12T13:12:41;12.80;;;11.10;;
2039;SDS011;1025;42.686;23.350;2023-02-12T13:15:18;14.90;;;11.57;;
2039;SDS011;1025;42.686;23.350;2023-02-12T13:17:48;14.50;;;13.20;;
2039;SDS011;1025;42.686;23.350;2023-02-12T13:20:18;12.23;;;11.23;;
2039;SDS011;1025;42.686;23.350;2023-02-12T13:22:49;12.33;;;11.10;;
2039;SDS011;1025;42.686;23.350;2023-02-12T13:25:20;21.90;;;13.00;;
2039;SDS011;1025;42.686;23.350;2023-02-12T13:27:47;18.13;;;13.97;;
2039;SDS011;1025;42.686;23.350;2023-02-12T13:30:21;17.57;;;12.90;;
2039;SDS011;1025;42.686;23.350;2023-02-12T13:32:50;26.23;;;13.07;;
2039;SDS011;1025;42.686;23.350;2023-02-12T13:35:21;14.97;;;13.67;;
2039;SDS011;1025;42.686;23.350;2023-02-12T13:37:48;17.93;;;13.80;;
2039;SDS011;1025;42.686;23.350;2023-02-12T13:40:16;24.03;;;15.93;;
2039;SDS011;1025;42.686;23.350;2023-02-12T13:42:45;15.10;;;13.67;;
2039;SDS011;1025;42.686;23.350;2023-02-12T13:45:15;12.10;;;11.10;;
2039;SDS011;1025;42.686;23.350;2023-02-12T13:47:49;13.00;;;11.90;;
2039;SDS011;1025;42.686;23.350;2023-02-12T13:50:22;21.93;;;12.20;;
2039;SDS011;1025;42.686;23.350;2023-02-12T13:52:53;15.83;;;14.10;;
2039;SDS011;1025;42.686;23.350;2023-02-12T13:55:22;11.67;;;10.80;;
2039;SDS011;1025;42.686;23.350;2023-02-12T14:00:55;12.23;;;11.23;;
2039;SDS011;1025;42.686;23.350;2023-02-12T14:03:23;18.63;;;12.33;;
2039;SDS011;1025;42.686;23.350;2023-02-12T14:06:05;11.10;;;10.30;;
2039;SDS011;1025;42.686;23.350;2023-02-12T14:08:34;12.30;;;11.40;;
2039;SDS011;1025;42.686;23.350;2023-02-12T14:11:01;13.20;;;12.07;;
2039;SDS011;1025;42.686;23.350;2023-02-12T14:13:28;12.27;;;11.30;;
2039;SDS011;1025;42.686;23.350;2023-02-12T14:15:58;19.47;;;14.90;;
2039;SDS011;1025;42.686;23.350;2023-02-12T14:18:44;12.60;;;11.50;;
2039;SDS011;1025;42.686;23.350;2023-02-12T14:26:43;20.70;;;14.03;;
2039;SDS011;1025;42.686;23.350;2023-02-12T14:29:14;14.60;;;13.43;;
2039;SDS011;1025;42.686;23.350;2023-02-12T14:31:42;24.33;;;14.23;;
2039;SDS011;1025;42.686;23.350;2023-02-12T14:39:59;13.50;;;12.50;;
2039;SDS011;1025;42.686;23.350;2023-02-12T14:42:53;24.77;;;14.27;;
2039;SDS011;1025;42.686;23.350;2023-02-12T14:45:33;14.83;;;13.37;;
2039;SDS011;1025;42.686;23.350;2023-02-12T14:48:00;13.27;;;12.13;;
2039;SDS011;1025;42.686;23.350;2023-02-12T14:50:28;14.90;;;12.70;;
2039;SDS011;1025;42.686;23.350;2023-02-12T14:53:02;12.00;;;11.10;;
2039;SDS011;1025;42.686;23.350;2023-02-12T14:55:31;14.73;;;13.43;;
2039;SDS011;1025;42.686;23.350;2023-02-12T14:58:00;15.67;;;13.70;;
2039;SDS011;1025;42.686;23.350;2023-02-12T15:00:28;15.60;;;14.30;;
2039;SDS011;1025;42.686;23.350;2023-02-12T15:02:58;15.30;;;13.90;;
2039;SDS011;1025;42.686;23.350;2023-02-12T15:05:27;16.03;;;14.50;;
2039;SDS011;1025;42.686;23.350;2023-02-12T15:07:55;18.83;;;14.27;;
2039;SDS011;1025;42.686;23.350;2023-02-12T15:10:26;16.60;;;15.00;;
2039;SDS011;1025;42.686;23.350;2023-02-12T15:12:55;15.50;;;14.20;;
2039;SDS011;1025;42.686;23.350;2023-02-12T15:15:24;13.37;;;12.20;;
2039;SDS011;1025;42.686;23.350;2023-02-12T15:17:55;12.23;;;11.23;;
2039;SDS011;1025;42.686;23.350;2023-02-12T15:20:24;16.30;;;14.57;;
2039;SDS011;1025;42.686;23.350;2023-02-12T15:22:56;15.53;;;13.93;;
2039;SDS011;1025;42.686;23.350;2023-02-12T15:25:23;16.13;;;14.07;;
2039;SDS011;1025;42.686;23.350;2023-02-12T15:27:51;15.60;;;13.97;;
2039;SDS011;1025;42.686;23.350;2023-02-12T15:30:22;14.10;;;12.57;;
2039;SDS011;1025;42.686;23.350;2023-02-12T15:32:48;14.60;;;13.30;;
2039;SDS011;1025;42.686;23.350;2023-02-12T15:35:19;21.23;;;13.80;;
2039;SDS011;1025;42.686;23.350;2023-02-12T15:37:47;34.20;;;16.50;;